createdAt,value
2018-03-31T00:00:01.327Z,16.67
2018-03-31T00:02:28.539Z,17.00
2018-03-31T00:04:56.006Z,17.43
2018-03-31T00:07:23.983Z,16.47
2018-03-31T00:09:51.959Z,18.40
2018-03-31T00:12:19.987Z,17.83
2018-03-31T00:14:47.199Z,17.90
2018-03-31T00:17:14.404Z,16.40
2018-03-31T00:19:41.878Z,17.20
2018-03-31T00:22:09.886Z,17.87
2018-03-31T00:24:37.106Z,16.93
2018-03-31T00:27:05.450Z,19.47
2018-03-31T00:29:32.654Z,18.40
2018-03-31T00:31:59.863Z,18.93
2018-03-31T00:34:27.262Z,19.23
2018-03-31T00:36:54.656Z,18.07
2018-03-31T00:39:21.859Z,17.57
2018-03-31T00:41:49.126Z,17.67
2018-03-31T00:44:16.334Z,18.03
2018-03-31T00:46:43.552Z,20.87
2018-03-31T00:49:10.804Z,18.50
2018-03-31T00:51:38.015Z,19.73
2018-03-31T00:54:05.220Z,20.70
2018-03-31T00:56:32.587Z,20.63
2018-03-31T00:58:59.803Z,20.97
2018-03-31T01:01:27.010Z,22.63
2018-03-31T01:03:55.285Z,22.73
2018-03-31T01:06:23.256Z,20.67
2018-03-31T01:08:51.228Z,20.90
2018-03-31T01:11:19.255Z,21.83
2018-03-31T01:13:46.473Z,22.17
2018-03-31T01:16:13.675Z,23.93
2018-03-31T01:18:40.950Z,21.33
2018-03-31T01:21:08.927Z,22.60
2018-03-31T01:23:36.896Z,24.07
2018-03-31T01:26:05.251Z,23.30
2018-03-31T01:28:32.459Z,22.03
2018-03-31T01:30:59.689Z,22.17
2018-03-31T01:33:27.046Z,22.30
2018-03-31T01:35:54.255Z,21.73
2018-03-31T01:38:21.464Z,22.73
2018-03-31T01:40:48.771Z,21.50
2018-03-31T01:43:15.978Z,22.07
2018-03-31T01:45:43.179Z,25.30
2018-03-31T01:48:11.451Z,25.43
2018-03-31T01:50:38.667Z,22.90
2018-03-31T01:53:05.879Z,24.07
2018-03-31T01:55:33.338Z,25.07
2018-03-31T01:58:00.547Z,25.80
2018-03-31T02:00:27.763Z,25.37
2018-03-31T02:02:55.171Z,25.53
2018-03-31T02:05:23.141Z,23.67
2018-03-31T02:07:51.115Z,22.27
2018-03-31T02:10:19.288Z,21.17
2018-03-31T02:12:47.260Z,20.67
2018-03-31T02:15:15.235Z,21.47
2018-03-31T02:17:42.487Z,19.20
2018-03-31T02:20:10.465Z,20.07
2018-03-31T02:22:37.672Z,17.10
2018-03-31T02:25:04.931Z,19.57
2018-03-31T02:27:32.151Z,20.57
2018-03-31T02:29:59.356Z,19.93
2018-03-31T02:32:27.559Z,19.83
2018-03-31T02:34:54.773Z,31.43
2018-03-31T02:37:22.752Z,33.17
2018-03-31T02:39:50.787Z,35.13
2018-03-31T02:42:18.000Z,42.80
2018-03-31T02:44:45.212Z,34.50
2018-03-31T02:47:12.679Z,29.17
2018-03-31T02:49:40.652Z,33.40
2018-03-31T02:52:08.624Z,35.40
2018-03-31T02:54:36.735Z,31.97
2018-03-31T02:57:03.963Z,32.43
2018-03-31T02:59:31.171Z,33.17
2018-03-31T03:01:58.750Z,29.63
2018-03-31T03:04:26.733Z,27.40
2018-03-31T03:06:54.703Z,25.83
2018-03-31T03:09:22.130Z,23.87
2018-03-31T03:11:49.337Z,26.77
2018-03-31T03:14:16.707Z,27.47
2018-03-31T03:16:44.202Z,28.43
2018-03-31T03:19:11.411Z,26.97
2018-03-31T03:21:38.635Z,26.57
2018-03-31T03:24:05.890Z,26.27
2018-03-31T03:26:33.107Z,28.17
2018-03-31T03:29:00.318Z,27.07
2018-03-31T03:31:27.824Z,28.50
2018-03-31T03:33:55.800Z,38.10
2018-03-31T03:36:23.771Z,56.17
2018-03-31T03:38:51.787Z,69.30
2018-03-31T03:41:19.151Z,58.77
2018-03-31T03:43:46.499Z,54.07
2018-03-31T03:46:14.102Z,50.37
2018-03-31T03:48:42.076Z,45.80
2018-03-31T03:51:10.047Z,43.63
2018-03-31T03:53:38.071Z,39.93
2018-03-31T03:56:05.283Z,32.80
2018-03-31T03:58:32.483Z,35.33
2018-03-31T04:00:59.735Z,42.83
2018-03-31T04:03:26.956Z,32.70
2018-03-31T04:05:54.167Z,30.93
2018-03-31T04:08:22.219Z,32.07
2018-03-31T04:10:49.755Z,34.33
2018-03-31T04:13:16.962Z,31.27
2018-03-31T04:15:45.223Z,31.60
2018-03-31T04:18:13.195Z,33.57
2018-03-31T04:20:41.166Z,32.70
2018-03-31T04:23:09.440Z,31.73
2018-03-31T04:25:37.414Z,31.97
2018-03-31T04:28:05.385Z,31.23
2018-03-31T04:30:33.419Z,32.10
2018-03-31T04:33:00.628Z,34.03
2018-03-31T04:35:27.843Z,34.53
2018-03-31T04:37:56.123Z,35.33
2018-03-31T04:40:24.103Z,37.03
2018-03-31T04:42:52.080Z,39.90
2018-03-31T04:45:19.623Z,46.00
2018-03-31T04:47:47.603Z,75.07
2018-03-31T04:50:15.641Z,128.07
2018-03-31T04:52:43.124Z,114.33
2018-03-31T04:55:11.099Z,133.30
2018-03-31T04:57:39.080Z,97.47
2018-03-31T05:00:06.475Z,90.03
2018-03-31T05:02:33.715Z,72.27
2018-03-31T05:05:00.947Z,71.13
2018-03-31T05:07:28.372Z,82.10
2018-03-31T05:09:55.579Z,79.40
2018-03-31T05:12:22.819Z,125.07
2018-03-31T05:14:50.218Z,134.00
2018-03-31T05:17:17.442Z,62.33
2018-03-31T05:19:44.655Z,62.27
2018-03-31T05:22:11.920Z,59.10
2018-03-31T05:24:39.135Z,66.97
2018-03-31T05:27:07.119Z,85.63
2018-03-31T05:29:35.387Z,54.10
2018-03-31T05:32:03.363Z,42.17
2018-03-31T05:34:31.343Z,36.37
2018-03-31T05:36:59.802Z,31.90
2018-03-31T05:39:27.780Z,32.90
2018-03-31T05:41:55.761Z,31.47
2018-03-31T05:44:23.019Z,24.37
2018-03-31T05:46:50.226Z,28.63
2018-03-31T05:49:17.439Z,27.97
2018-03-31T05:51:44.697Z,23.73
2018-03-31T05:54:11.907Z,24.47
2018-03-31T05:56:39.884Z,26.87
2018-03-31T05:59:07.147Z,37.00
2018-03-31T06:01:34.374Z,35.47
2018-03-31T06:04:02.359Z,33.17
2018-03-31T06:06:30.392Z,30.07
2018-03-31T06:08:57.676Z,31.83
2018-03-31T06:11:25.651Z,28.63
2018-03-31T06:13:53.777Z,31.23
2018-03-31T06:16:20.983Z,32.10
2018-03-31T06:18:48.195Z,32.67
2018-03-31T06:21:15.467Z,26.30
2018-03-31T06:23:43.445Z,25.23
2018-03-31T06:26:10.651Z,23.03
2018-03-31T06:28:38.145Z,23.33
2018-03-31T06:31:06.129Z,22.47
2018-03-31T06:33:33.371Z,23.03
2018-03-31T06:36:01.396Z,23.23
2018-03-31T06:38:28.608Z,20.97
2018-03-31T06:40:55.816Z,22.40
2018-03-31T06:43:23.079Z,21.43
2018-03-31T06:45:51.808Z,22.23
2018-03-31T06:48:19.028Z,23.60
2018-03-31T06:50:47.304Z,21.60
2018-03-31T06:53:15.284Z,22.50
2018-03-31T06:55:43.408Z,21.00
2018-03-31T06:58:10.763Z,25.30
2018-03-31T07:00:38.110Z,25.13
2018-03-31T07:03:05.470Z,25.60
2018-03-31T07:05:33.234Z,29.50
2018-03-31T07:08:00.593Z,29.87
2018-03-31T07:10:27.939Z,33.67
2018-03-31T07:12:55.582Z,32.80
2018-03-31T07:15:22.803Z,29.97
2018-03-31T07:17:50.179Z,32.63
2018-03-31T07:20:17.537Z,28.80
2018-03-31T07:22:44.747Z,25.73
2018-03-31T07:25:11.987Z,24.70
2018-03-31T07:27:40.255Z,25.23
2018-03-31T07:30:08.386Z,23.20
2018-03-31T07:32:35.603Z,23.27
2018-03-31T07:35:02.887Z,21.53
2018-03-31T07:37:30.108Z,23.53
2018-03-31T07:39:57.323Z,23.47
2018-03-31T07:42:24.680Z,22.30
2018-03-31T07:44:53.411Z,23.40
2018-03-31T07:47:20.794Z,26.53
2018-03-31T07:49:48.350Z,28.87
2018-03-31T07:52:15.807Z,27.97
2018-03-31T07:54:43.015Z,26.53
2018-03-31T07:57:11.051Z,24.23
2018-03-31T07:59:38.269Z,24.07
2018-03-31T08:02:05.497Z,25.70
2018-03-31T08:04:32.924Z,29.37
2018-03-31T08:07:01.065Z,22.70
2018-03-31T08:09:28.362Z,24.50
2018-03-31T08:11:56.493Z,29.30
2018-03-31T08:14:23.743Z,48.23
2018-03-31T08:16:52.021Z,47.17
2018-03-31T08:19:19.581Z,47.57
2018-03-31T08:21:46.936Z,40.20
2018-03-31T08:24:14.283Z,30.47
2018-03-31T08:26:41.791Z,25.50
2018-03-31T08:29:09.776Z,26.17
2018-03-31T08:31:36.991Z,22.63
2018-03-31T08:34:04.247Z,23.87
2018-03-31T08:36:31.456Z,22.17
2018-03-31T08:38:58.667Z,23.30
2018-03-31T08:41:26.796Z,21.73
2018-03-31T08:43:54.152Z,21.10
2018-03-31T08:46:21.362Z,21.77
2018-03-31T08:48:49.511Z,22.63
2018-03-31T08:51:17.498Z,21.40
2018-03-31T08:53:44.716Z,20.60
2018-03-31T08:56:11.988Z,20.93
2018-03-31T08:58:40.355Z,21.73
2018-03-31T09:01:07.574Z,21.27
2018-03-31T09:03:35.175Z,20.07
2018-03-31T09:06:03.159Z,20.43
2018-03-31T09:08:30.370Z,20.77
2018-03-31T09:10:57.919Z,20.43
2018-03-31T09:13:25.127Z,20.70
2018-03-31T09:15:52.369Z,19.20
2018-03-31T09:18:19.719Z,20.47
2018-03-31T09:20:47.699Z,21.87
2018-03-31T09:23:14.911Z,22.77
2018-03-31T09:25:42.604Z,23.43
2018-03-31T09:28:10.597Z,22.47
2018-03-31T09:30:37.815Z,22.40
2018-03-31T09:33:05.852Z,23.27
2018-03-31T09:35:33.509Z,22.40
2018-03-31T09:38:00.718Z,21.73
2018-03-31T09:40:29.008Z,21.97
2018-03-31T09:42:56.234Z,25.93
2018-03-31T09:45:24.221Z,22.40
2018-03-31T09:47:51.486Z,22.17
2018-03-31T09:50:18.714Z,23.00
2018-03-31T09:52:46.700Z,27.30
2018-03-31T09:55:13.975Z,26.80
2018-03-31T09:57:41.197Z,18.07
2018-03-31T10:00:08.432Z,18.33
2018-03-31T10:02:36.555Z,20.27
2018-03-31T10:05:03.767Z,18.80
2018-03-31T10:07:31.747Z,16.17
2018-03-31T10:09:59.012Z,16.67
2018-03-31T10:12:26.234Z,17.17
2018-03-31T10:14:54.226Z,18.47
2018-03-31T10:17:21.619Z,17.07
2018-03-31T10:19:48.839Z,19.33
2018-03-31T10:22:16.051Z,17.80
2018-03-31T10:24:44.355Z,18.27
2018-03-31T10:27:11.576Z,20.27
2018-03-31T10:29:39.559Z,19.30
2018-03-31T10:32:07.591Z,19.80
2018-03-31T10:34:34.810Z,19.87
2018-03-31T10:37:02.027Z,19.13
2018-03-31T10:39:30.296Z,19.07
2018-03-31T10:41:58.287Z,20.17
2018-03-31T10:44:25.529Z,21.87
2018-03-31T10:46:53.555Z,20.97
2018-03-31T10:49:20.774Z,22.57
2018-03-31T10:51:47.995Z,21.83
2018-03-31T10:54:16.127Z,22.27
2018-03-31T10:56:43.336Z,22.93
2018-03-31T10:59:10.549Z,23.67
2018-03-31T11:01:37.811Z,22.77
2018-03-31T11:04:05.023Z,22.40
2018-03-31T11:06:32.587Z,22.10
2018-03-31T11:09:00.809Z,23.27
2018-03-31T11:11:28.792Z,22.00
2018-03-31T11:13:56.038Z,22.70
2018-03-31T11:16:24.311Z,23.30
2018-03-31T11:18:52.288Z,23.70
2018-03-31T11:21:19.503Z,25.53
2018-03-31T11:23:46.768Z,21.20
2018-03-31T11:26:13.985Z,20.70
2018-03-31T11:28:41.207Z,19.67
2018-03-31T11:31:08.871Z,19.57
2018-03-31T11:33:36.230Z,17.77
2018-03-31T11:36:03.586Z,19.93
2018-03-31T11:38:31.351Z,19.23
2018-03-31T11:40:58.698Z,19.60
2018-03-31T11:43:25.915Z,19.03
2018-03-31T11:45:54.195Z,21.37
2018-03-31T11:48:21.416Z,18.93
2018-03-31T11:50:48.632Z,20.23
2018-03-31T11:53:15.908Z,19.57
2018-03-31T11:55:43.488Z,19.40
2018-03-31T11:58:11.468Z,17.97
2018-03-31T12:00:38.771Z,20.93
2018-03-31T12:03:05.984Z,20.73
2018-03-31T12:05:33.211Z,22.90
2018-03-31T12:08:01.388Z,20.50
2018-03-31T12:10:29.393Z,18.77
2018-03-31T12:12:56.629Z,17.77
2018-03-31T12:15:23.920Z,18.20
2018-03-31T12:17:51.135Z,18.07
2018-03-31T12:20:18.359Z,17.13
2018-03-31T12:22:46.402Z,18.70
2018-03-31T12:25:13.615Z,19.20
2018-03-31T12:27:40.898Z,19.10
2018-03-31T12:30:08.159Z,19.63
2018-03-31T12:32:35.377Z,18.47
2018-03-31T12:35:02.601Z,19.77
2018-03-31T12:37:31.746Z,19.83
2018-03-31T12:39:58.971Z,19.93
2018-03-31T12:42:26.198Z,19.00
2018-03-31T12:44:54.256Z,17.80
2018-03-31T12:47:22.248Z,17.13
2018-03-31T12:49:50.232Z,18.60
2018-03-31T12:52:17.541Z,18.90
2018-03-31T12:54:44.769Z,17.07
2018-03-31T12:57:11.981Z,19.87
2018-03-31T12:59:39.248Z,17.90
2018-03-31T13:02:06.462Z,17.37
2018-03-31T13:04:34.449Z,19.30
2018-03-31T13:07:02.482Z,20.60
2018-03-31T13:09:29.696Z,19.73
2018-03-31T13:11:56.908Z,18.77
2018-03-31T13:14:25.930Z,18.30
2018-03-31T13:16:53.626Z,18.83
2018-03-31T13:19:20.843Z,20.67
2018-03-31T13:21:48.103Z,18.00
2018-03-31T13:24:15.315Z,71.53
2018-03-31T13:26:43.305Z,19.30
2018-03-31T13:29:10.563Z,33.00
2018-03-31T13:31:37.794Z,18.53
2018-03-31T13:34:05.011Z,19.80
2018-03-31T13:36:33.039Z,18.47
2018-03-31T13:39:00.256Z,16.33
2018-03-31T13:41:27.491Z,23.57
2018-03-31T13:43:55.820Z,17.50
2018-03-31T13:46:23.032Z,17.10
2018-03-31T13:48:50.240Z,16.80
2018-03-31T13:51:17.515Z,15.03
2018-03-31T13:53:45.645Z,13.97
2018-03-31T13:56:13.004Z,14.87
2018-03-31T13:58:40.671Z,15.40
2018-03-31T14:01:08.016Z,16.40
2018-03-31T14:03:35.374Z,15.50
2018-03-31T14:06:02.731Z,15.67
2018-03-31T14:08:30.083Z,14.70
2018-03-31T14:10:57.438Z,15.90
2018-03-31T14:13:24.795Z,16.20
2018-03-31T14:15:52.143Z,14.67
2018-03-31T14:18:19.502Z,18.10
2018-03-31T14:20:47.166Z,14.13
2018-03-31T14:23:14.515Z,15.07
2018-03-31T14:25:41.873Z,15.73
2018-03-31T14:28:09.330Z,14.53
2018-03-31T14:30:36.687Z,14.17
2018-03-31T14:33:04.035Z,14.17
2018-03-31T14:35:31.394Z,14.70
2018-03-31T14:37:58.755Z,14.20
2018-03-31T14:40:27.633Z,14.73
2018-03-31T14:42:55.816Z,19.00
2018-03-31T14:45:23.166Z,16.40
2018-03-31T14:47:50.522Z,15.13
2018-03-31T14:50:18.187Z,15.40
2018-03-31T14:52:45.533Z,16.07
2018-03-31T14:55:12.893Z,15.50
2018-03-31T14:57:40.448Z,14.27
2018-03-31T15:00:07.809Z,14.30
2018-03-31T15:02:35.054Z,25.00
2018-03-31T15:05:03.028Z,21.50
2018-03-31T15:07:30.256Z,16.07
2018-03-31T15:09:57.478Z,14.43
2018-03-31T15:12:25.519Z,14.53
2018-03-31T15:14:52.735Z,13.63
2018-03-31T15:17:19.961Z,16.23
2018-03-31T15:19:47.228Z,16.87
2018-03-31T15:22:14.453Z,15.73
2018-03-31T15:24:42.426Z,15.97
2018-03-31T15:27:10.453Z,15.67
2018-03-31T15:29:37.676Z,16.70
2018-03-31T15:32:04.902Z,15.73
2018-03-31T15:34:33.037Z,23.20
2018-03-31T15:37:00.257Z,24.93
2018-03-31T15:39:27.475Z,35.53
2018-03-31T15:41:55.932Z,32.23
2018-03-31T15:44:23.500Z,32.33
2018-03-31T15:46:51.485Z,70.67
2018-03-31T15:49:19.737Z,178.80
2018-03-31T15:51:47.735Z,416.87
2018-03-31T15:54:14.965Z,218.17
2018-03-31T15:56:43.299Z,178.87
2018-03-31T15:59:10.528Z,134.67
2018-03-31T16:01:37.759Z,76.30
2018-03-31T16:04:05.795Z,59.43
2018-03-31T16:06:33.016Z,75.03
2018-03-31T16:09:01.003Z,73.57
2018-03-31T16:11:28.280Z,81.27
2018-03-31T16:13:56.431Z,64.23
2018-03-31T16:16:23.659Z,60.47
2018-03-31T16:18:50.938Z,61.70
2018-03-31T16:21:18.160Z,54.97
2018-03-31T16:23:45.384Z,52.80
2018-03-31T16:26:13.424Z,62.93
2018-03-31T16:28:41.076Z,77.27
2018-03-31T16:31:08.287Z,72.90
2018-03-31T16:33:35.540Z,64.50
2018-03-31T16:36:02.763Z,53.70
2018-03-31T16:38:30.761Z,61.87
2018-03-31T16:40:58.030Z,59.00
2018-03-31T16:43:25.250Z,35.20
2018-03-31T16:45:53.943Z,23.73
2018-03-31T16:48:21.303Z,20.23
2018-03-31T16:50:48.512Z,18.77
2018-03-31T16:53:15.732Z,20.47
2018-03-31T16:55:43.002Z,21.47
2018-03-31T16:58:10.219Z,24.57
2018-03-31T17:00:37.440Z,24.97
2018-03-31T17:03:05.711Z,25.63
2018-03-31T17:05:33.700Z,27.93
2018-03-31T17:08:00.921Z,30.37
2018-03-31T17:10:28.291Z,101.23
2018-03-31T17:12:56.280Z,46.13
2018-03-31T17:15:23.524Z,65.87
2018-03-31T17:17:50.812Z,93.90
2018-03-31T17:20:18.029Z,35.93
2018-03-31T17:22:45.247Z,34.07
2018-03-31T17:25:12.744Z,32.47
2018-03-31T17:27:39.959Z,26.90
2018-03-31T17:30:07.171Z,21.50
2018-03-31T17:32:34.743Z,38.33
2018-03-31T17:35:01.986Z,72.90
2018-03-31T17:37:29.217Z,104.27
2018-03-31T17:39:56.865Z,63.27
2018-03-31T17:42:24.084Z,46.47
2018-03-31T17:44:51.317Z,35.97
2018-03-31T17:47:18.583Z,37.77
2018-03-31T17:49:46.112Z,84.20
2018-03-31T17:52:14.111Z,52.33
2018-03-31T17:54:41.515Z,33.27
2018-03-31T17:57:08.994Z,22.83
2018-03-31T17:59:36.996Z,18.37
2018-03-31T18:02:04.276Z,63.87
2018-03-31T18:04:31.502Z,40.37
2018-03-31T18:06:58.760Z,24.60
2018-03-31T18:09:26.383Z,21.93
2018-03-31T18:11:54.368Z,46.10
2018-03-31T18:14:21.595Z,33.27
2018-03-31T18:16:49.720Z,50.60
2018-03-31T18:19:16.939Z,26.53
2018-03-31T18:21:44.165Z,62.10
2018-03-31T18:24:11.495Z,43.97
2018-03-31T18:26:38.750Z,89.03
2018-03-31T18:29:06.010Z,54.73
2018-03-31T18:31:33.287Z,29.03
2018-03-31T18:34:01.295Z,24.90
2018-03-31T18:36:28.526Z,41.00
2018-03-31T18:38:56.396Z,30.90
2018-03-31T18:41:24.363Z,26.00
2018-03-31T18:43:51.595Z,38.63
2018-03-31T18:46:19.636Z,31.30
2018-03-31T18:48:46.860Z,29.43
2018-03-31T18:51:14.087Z,14.10
2018-03-31T18:53:42.305Z,41.60
2018-03-31T18:56:09.535Z,24.70
2018-03-31T18:58:36.755Z,24.60
2018-03-31T19:01:05.028Z,27.10
2018-03-31T19:03:33.015Z,35.30
2018-03-31T19:06:00.714Z,27.10
2018-03-31T19:08:27.979Z,29.73
2018-03-31T19:10:55.244Z,31.27
2018-03-31T19:13:22.469Z,24.07
2018-03-31T19:15:50.085Z,18.40
2018-03-31T19:18:19.001Z,25.03
2018-03-31T19:20:46.224Z,23.43
2018-03-31T19:23:14.406Z,16.90
2018-03-31T19:25:41.644Z,21.93
2018-03-31T19:28:09.627Z,15.00
2018-03-31T19:30:42.796Z,20.43
2018-03-31T19:33:11.133Z,16.70
2018-03-31T19:35:44.841Z,18.77
2018-03-31T19:38:12.061Z,28.90
2018-03-31T19:40:39.289Z,26.33
2018-03-31T19:43:07.560Z,35.77
2018-03-31T19:45:35.552Z,47.20
2018-03-31T19:48:03.616Z,35.40
2018-03-31T19:50:31.071Z,47.43
2018-03-31T19:52:58.313Z,44.80
2018-03-31T19:55:26.316Z,33.63
2018-03-31T19:57:54.804Z,9.10
2018-03-31T20:00:22.028Z,18.33
2018-03-31T20:02:50.026Z,42.57
2018-03-31T20:05:17.555Z,47.63
2018-03-31T20:07:44.778Z,36.30
2018-03-31T20:10:12.004Z,19.07
2018-03-31T20:12:39.556Z,16.93
2018-03-31T20:15:06.768Z,18.80
2018-03-31T20:17:33.984Z,21.80
2018-03-31T20:20:02.030Z,20.90
2018-03-31T20:22:29.254Z,40.13
2018-03-31T20:24:56.468Z,31.07
2018-03-31T20:27:23.725Z,23.10
2018-03-31T20:29:50.960Z,27.67
2018-03-31T20:32:18.944Z,24.33
2018-03-31T20:34:46.240Z,36.07
2018-03-31T20:37:13.458Z,29.73
2018-03-31T20:39:40.677Z,16.83
2018-03-31T20:42:08.717Z,18.83
2018-03-31T20:44:35.928Z,38.60
2018-03-31T20:47:03.144Z,43.30
2018-03-31T20:49:30.548Z,20.23
2018-03-31T20:51:57.765Z,8.87
2018-03-31T20:54:25.748Z,7.70
2018-03-31T20:56:54.004Z,8.67
2018-03-31T20:59:21.984Z,7.90
2018-03-31T21:01:49.974Z,8.33
2018-03-31T21:04:17.609Z,7.63
2018-03-31T21:06:45.597Z,10.77
2018-03-31T21:09:12.825Z,9.80
2018-03-31T21:11:40.858Z,8.07
2018-03-31T21:14:08.081Z,7.60
2018-03-31T21:16:35.305Z,9.40
2018-03-31T21:19:03.656Z,9.30
2018-03-31T21:21:30.880Z,10.53
2018-03-31T21:23:58.108Z,22.67
2018-03-31T21:26:25.389Z,23.83
2018-03-31T21:28:52.611Z,17.23
2018-03-31T21:31:19.828Z,9.60
2018-03-31T21:33:47.088Z,7.60
2018-03-31T21:36:15.064Z,7.40
2018-03-31T21:38:43.046Z,7.07
2018-03-31T21:41:11.097Z,8.07
2018-03-31T21:43:39.076Z,6.47
2018-03-31T21:46:07.056Z,6.10
2018-03-31T21:48:34.493Z,6.70
2018-03-31T21:51:02.496Z,6.13
2018-03-31T21:53:29.712Z,5.93
2018-03-31T21:55:57.732Z,5.90
2018-03-31T21:58:24.939Z,5.23
2018-03-31T22:00:52.912Z,5.50
2018-03-31T22:03:21.180Z,13.33
2018-03-31T22:05:49.161Z,19.63
2018-03-31T22:08:17.145Z,13.77
2018-03-31T22:10:44.419Z,11.80
2018-03-31T22:13:17.135Z,10.40
2018-03-31T22:15:49.240Z,7.97
2018-03-31T22:18:16.464Z,7.40
2018-03-31T22:20:44.452Z,7.23
2018-03-31T22:23:11.896Z,7.80
2018-03-31T22:25:39.876Z,7.27
2018-03-31T22:28:07.857Z,10.00
2018-03-31T22:30:35.199Z,9.77
2018-03-31T22:33:03.171Z,7.27
2018-03-31T22:35:31.158Z,7.03
2018-03-31T22:37:58.420Z,6.67
2018-03-31T22:40:25.633Z,6.57
2018-03-31T22:42:53.612Z,6.60
2018-03-31T22:45:21.636Z,6.70
2018-03-31T22:47:48.840Z,5.27
2018-03-31T22:50:16.072Z,6.33
2018-03-31T22:59:27.871Z,5.40
2018-03-31T23:01:55.076Z,6.00
2018-03-31T23:04:23.048Z,6.07
2018-03-31T23:06:50.308Z,5.70
2018-03-31T23:09:17.512Z,6.53
2018-03-31T23:11:44.724Z,5.90
2018-03-31T23:14:12.141Z,6.23
2018-03-31T23:16:40.144Z,5.20
2018-03-31T23:19:07.380Z,5.77
2018-03-31T23:21:34.668Z,5.60
2018-03-31T23:24:01.920Z,5.67
2018-03-31T23:26:29.891Z,5.63
2018-03-31T23:28:57.153Z,5.53
2018-03-31T23:31:24.361Z,4.73
2018-03-31T23:33:51.585Z,4.97
2018-03-31T23:36:19.607Z,4.83
2018-03-31T23:38:46.812Z,5.00
2018-03-31T23:41:14.784Z,4.53
2018-03-31T23:43:42.804Z,4.77
2018-03-31T23:46:10.012Z,4.83
2018-03-31T23:48:37.984Z,4.50
2018-03-31T23:51:06.018Z,4.70
2018-03-31T23:53:33.252Z,4.97
2018-03-31T23:56:00.519Z,4.07
2018-03-31T23:58:28.004Z,4.80
